Observations for NEWCASTLE, United Kingdom (EGNT)

EGNT 200620Z VRB01KT 8000 NSC 07/07 Q1032   
EGNT 200550Z 19002KT 8000 NSC 06/06 Q1032   
EGNT 200520Z 24001KT 8000 NSC 04/04 Q1032   
EGNT 200450Z 27003KT 8000 NSC 04/04 Q1031   
EGNT 200420Z 22002KT 8000 NSC 03/03 Q1031   
EGNT 200350Z 24002KT 8000 NSC 03/03 Q1031   
EGNT 200320Z 28001KT 8000 NSC 03/03 Q1032   
EGNT 200250Z 21001KT CAVOK 03/03 Q1032  
EGNT 200220Z 32002KT CAVOK 03/03 Q1032  
EGNT 200150Z 31001KT CAVOK 04/04 Q1032  
EGNT 200120Z 31001KT CAVOK 04/04 Q1032  
EGNT 200050Z 36001KT CAVOK 04/04 Q1032  
EGNT 200020Z 32001KT CAVOK 04/04 Q1032  
EGNT 192350Z 00000KT CAVOK 04/04 Q1032  
EGNT 192320Z 00000KT CAVOK 04/04 Q1032  
EGNT 192250Z 00000KT CAVOK 05/05 Q1032  
EGNT 192220Z 30003KT CAVOK 05/04 Q1033  
EGNT 192150Z 33002KT CAVOK 06/04 Q1032  
EGNT 192120Z VRB01KT CAVOK 06/03 Q1032  
EGNT 192050Z 13001KT CAVOK 08/05 Q1032  
EGNT 192020Z 13003KT CAVOK 10/05 Q1032  
EGNT 191950Z 13004KT CAVOK 11/05 Q1032  
EGNT 191920Z 13005KT 080V150 CAVOK 11/05 Q1031  
EGNT 191850Z 12005KT 090V170 CAVOK 12/05 Q1031  
EGNT 191820Z 12006KT 070V170 CAVOK 14/05 Q1031  
EGNT 191750Z 12005KT 080V150 CAVOK 15/06 Q1031  
EGNT 191720Z 12006KT 090V150 CAVOK 16/06 Q1031  
EGNT 191650Z 11005KT CAVOK 17/06 Q1031  
EGNT 191620Z 11007KT 080V140 CAVOK 16/06 Q1031  
EGNT 191550Z 12006KT 070V160 CAVOK 17/07 Q1031  
EGNT 191520Z 10008KT 070V130 CAVOK 17/07 Q1031  
EGNT 191450Z 11008KT 060V150 CAVOK 18/07 Q1031  
EGNT 191420Z 11007KT 080V160 CAVOK 18/09 Q1031  
EGNT 191350Z 09007KT 070V140 CAVOK 18/09 Q1031  
EGNT 191320Z 10006KT 070V160 CAVOK 19/08 Q1031  
EGNT 191250Z 11005KT 070V160 CAVOK 19/08 Q1031  
EGNT 191220Z 11005KT 070V150 CAVOK 18/09 Q1032  
EGNT 191150Z 11004KT 060V170 CAVOK 17/10 Q1032  
EGNT 191120Z VRB03KT CAVOK 17/11 Q1032  
EGNT 191050Z VRB02KT 9999 FEW010 14/13 Q1032
EGNT 191020Z VRB01KT 9999 FEW005 12/12 Q1032
EGNT 190950Z VRB02KT 6000 SCT004 09/09 Q1032
EGNT 190920Z VRB01KT 1200 R07/P1500 HZ OVC001 09/// Q1032   
EGNT 190850Z VRB01KT 0200 R07/0400 FG OVC001 08/// Q1032
EGNT 190820Z VRB02KT 0250 R07/0350 FG OVC001 07/// Q1032
EGNT 190750Z 00000KT 0100 R07/0200 FG OVC001 06/// Q1032
EGNT 190720Z VRB01KT 0150 R07/0250 FG OVC001 06/// Q1032
EGNT 190650Z 27001KT 0150 R07/0250 FG OVC001 05/// Q1032
EGNT 190620Z VRB01KT 0100 R07/0225 FG OVC001 05/// Q1031
EGNT 190550Z 29002KT 0050 R07/0175 FG OVC001 04/// Q1031